Карточка аэропорта UOOO

Внимание!
Информация на этой странице в стадии наполнения.
Если вы не увидели какой-то информации, или заметили неточность - пожалуйста сообщите нам!
Спасибо!
Команда RU-STAFF
Название аэропортаАлыкель
Название аэропорта (англ.)Alykel
Превышение574 ft. (175 m.)
Координаты69°19.02', 87°19.02'
Высота перехода1200m
Эшелон переходаQFE>744:FL60;744>QFE>717:FL70;717>QFE:FL80
Коды ответчика5401-5427
Зона ОрВДКрасноярск РПИ (UNKL)
Данные METARUOOO 050730Z 28006MPS 9999 -SN DRSN OVC004 M03/M03 Q1012 R19/590536 NOSIG RMK QFE743/0990
Проноз погоды (TAF)UOOO 050650Z 0506/0606 29007G14MPS 6000 -SN BLSN OVC004 TEMPO 0506/0510 3200 -SN BLSN BECMG 0510/0512 2200 -SN BLSN TEMPO 0512/0606 0600 SN BLSN OVC002
NOTAMshow/hide NOTAM
AWOS   TABLE

Информация о ВПП

ВПП Длина ВПП (м.) Покрытие Курс ВПП Частота ILS
013430Бетон13109.5
193430Бетон193110.3

Диспетчерские позиции

Позывной Наименование органа УВД Частота
UOOO_GNDНорильск - Руление121.700
UOOO_APPНорильск - Круг120.400
UOOO_TWRНорильск - Старт118.300



Спутниковое изображение